Bodrum, Bodrum-Imsik Airport (LTBV)

NameBodrum-Imsik Airport
CityBodrum
CountryTurkey
ICAOLTBV
IATABXN
Altitude62 m
CoordinatesGoogle Map
Live Air TrafficLiveATC.net
METARLTBV 171150Z 24013KT 9999 FEW035 35/11 Q1011
2018-09-17 11:50:00 Wind: Southwest (240°) 6.69 m/s - Visibility: > 10000 m - Temperature: 35 °C - Dew point: 11 °C - Humidity: 23.1% - Pressure: 1011 hPa

Sorry, no flights used the airport in this database.